This is the latest recevied weather packets stored in our database for station/object N0AOL-13. If no packets are shown the sender has not sent any weather packets the latest 10 day(s).
| Time | Temp. | Humidity | Pressure | Rain* | Wind** | Luminosity | Snow |
|---|---|---|---|---|---|---|---|
| 1777331725 | 3.89° C | 75% | 1015.6 hPa | 0 mm | - | 46 W/m² | - |
| 1777328135 | 4.44° C | 74% | 1015.1 hPa | 0 mm | - | 137 W/m² | - |
| 1777327226 | 4.44° C | 73% | 1014.8 hPa | 0 mm | - | 102 W/m² | - |
| 1777303811 | 1.67° C | 88% | 1013.6 hPa | 1.27 mm | - | 125 W/m² | - |
| 1777302909 | 1.67° C | 89% | 1013.4 hPa | 1.02 mm | - | 105 W/m² | - |
| 1777300210 | 1.11° C | 91% | 1013.1 hPa | 0 mm | - | 53 W/m² | - |
| 1777295721 | 0.56° C | 91% | 1012.1 hPa | 0 mm | - | 11 W/m² | - |
| 1777294833 | 0.56° C | 91% | 1011.8 hPa | 0 mm | - | 12 W/m² | - |
| 1777293010 | 0.56° C | 91% | 1011.3 hPa | 0 mm | - | 9 W/m² | - |
| 1777289410 | 0° C | 92% | 1010.1 hPa | 0 mm | - | 0 W/m² | - |
| 1777288512 | 0° C | 93% | 1009.9 hPa | 0 mm | - | 0 W/m² | - |
| 1777286716 | 0° C | 93% | 1009.7 hPa | 0 mm | - | 0 W/m² | - |
| 1777284033 | 0° C | 93% | 1009.9 hPa | 0 mm | - | 0 W/m² | - |
| 1777283143 | 0° C | 93% | 1009.7 hPa | 0 mm | - | 0 W/m² | - |
| 1777275909 | 1.11° C | 92% | 1009 hPa | 0.25 mm | - | 0 W/m² | - |
| 1777268710 | 1.67° C | 93% | 1008.7 hPa | 0 mm | - | 0 W/m² | - |
| 1777266913 | 1.67° C | 93% | 1008.6 hPa | 0.25 mm | - | 0 W/m² | - |
| 1777263310 | 1.11° C | 93% | 1008.7 hPa | 0.76 mm | - | 0 W/m² | - |
| 1777255212 | 2.22° C | 93% | 1008.3 hPa | 0.76 mm | - | 0 W/m² | - |
| 1777249808 | 2.22° C | 92% | 1008 hPa | 0.76 mm | - | 30 W/m² | - |
| 1777246215 | 2.78° C | 92% | 1008 hPa | 0.25 mm | - | 37 W/m² | - |
| 1777243509 | 2.22° C | 91% | 1007.9 hPa | 0 mm | - | 44 W/m² | - |
| 1777242612 | 2.22° C | 91% | 1007.9 hPa | 0 mm | - | 40 W/m² | - |
| 1777230911 | 3.33° C | 89% | 1009.6 hPa | 0.76 mm | - | 260 W/m² | - |
| 1777226410 | 3.89° C | 84% | 1010.7 hPa | 0 mm | - | 158 W/m² | - |
* Rain latest hour (hover to see other rain measurements)
** Current wind speed in m/s (hover to see current wind gust speed)